sensor_id;sensor_type;location;lat;lon;timestamp;P1;durP1;ratioP1;P2;durP2;ratioP2
61756;SDS011;57225;61.460;24.060;2023-11-21T00:02:12;8.57;;;4.18;;
61756;SDS011;57225;61.460;24.060;2023-11-21T00:04:57;9.93;;;4.43;;
61756;SDS011;57225;61.460;24.060;2023-11-21T00:07:42;9.52;;;4.45;;
61756;SDS011;57225;61.460;24.060;2023-11-21T00:10:27;7.85;;;3.55;;
61756;SDS011;57225;61.460;24.060;2023-11-21T00:13:12;7.57;;;3.60;;
61756;SDS011;57225;61.460;24.060;2023-11-21T00:15:57;8.70;;;3.92;;
61756;SDS011;57225;61.460;24.060;2023-11-21T00:18:41;9.13;;;4.13;;
61756;SDS011;57225;61.460;24.060;2023-11-21T00:21:26;8.70;;;3.40;;
61756;SDS011;57225;61.460;24.060;2023-11-21T00:24:11;14.15;;;4.18;;
61756;SDS011;57225;61.460;24.060;2023-11-21T00:26:57;6.65;;;3.97;;
61756;SDS011;57225;61.460;24.060;2023-11-21T00:29:41;8.25;;;4.40;;
61756;SDS011;57225;61.460;24.060;2023-11-21T00:32:27;9.93;;;5.20;;
61756;SDS011;57225;61.460;24.060;2023-11-21T00:35:14;8.40;;;4.13;;
61756;SDS011;57225;61.460;24.060;2023-11-21T00:37:59;9.32;;;4.95;;
61756;SDS011;57225;61.460;24.060;2023-11-21T00:40:43;9.77;;;4.63;;
61756;SDS011;57225;61.460;24.060;2023-11-21T00:43:28;9.57;;;4.20;;
61756;SDS011;57225;61.460;24.060;2023-11-21T00:46:13;10.32;;;4.50;;
61756;SDS011;57225;61.460;24.060;2023-11-21T00:48:57;10.20;;;4.88;;
61756;SDS011;57225;61.460;24.060;2023-11-21T00:51:42;10.90;;;4.88;;
61756;SDS011;57225;61.460;24.060;2023-11-21T00:54:26;10.05;;;4.43;;
61756;SDS011;57225;61.460;24.060;2023-11-21T00:57:12;9.23;;;4.55;;
61756;SDS011;57225;61.460;24.060;2023-11-21T00:59:56;8.80;;;4.60;;
61756;SDS011;57225;61.460;24.060;2023-11-21T01:02:40;10.80;;;4.88;;
61756;SDS011;57225;61.460;24.060;2023-11-21T01:05:25;9.68;;;4.70;;
61756;SDS011;57225;61.460;24.060;2023-11-21T01:08:10;9.70;;;5.05;;
61756;SDS011;57225;61.460;24.060;2023-11-21T01:10:55;9.95;;;4.95;;
61756;SDS011;57225;61.460;24.060;2023-11-21T01:13:40;9.75;;;5.30;;
61756;SDS011;57225;61.460;24.060;2023-11-21T01:16:26;10.40;;;5.80;;
61756;SDS011;57225;61.460;24.060;2023-11-21T01:19:14;12.93;;;5.22;;
61756;SDS011;57225;61.460;24.060;2023-11-21T01:21:59;13.52;;;6.22;;
61756;SDS011;57225;61.460;24.060;2023-11-21T01:24:43;13.77;;;6.55;;
61756;SDS011;57225;61.460;24.060;2023-11-21T01:27:28;13.07;;;6.32;;
61756;SDS011;57225;61.460;24.060;2023-11-21T01:30:12;12.65;;;6.35;;
61756;SDS011;57225;61.460;24.060;2023-11-21T01:32:57;12.43;;;6.18;;
61756;SDS011;57225;61.460;24.060;2023-11-21T01:35:42;14.45;;;5.93;;
61756;SDS011;57225;61.460;24.060;2023-11-21T01:38:26;13.48;;;6.05;;
61756;SDS011;57225;61.460;24.060;2023-11-21T01:41:11;12.07;;;6.47;;
61756;SDS011;57225;61.460;24.060;2023-11-21T01:43:56;12.60;;;6.82;;
61756;SDS011;57225;61.460;24.060;2023-11-21T01:46:41;12.85;;;5.82;;
61756;SDS011;57225;61.460;24.060;2023-11-21T01:49:26;10.40;;;6.13;;
61756;SDS011;57225;61.460;24.060;2023-11-21T01:52:10;11.45;;;5.85;;
61756;SDS011;57225;61.460;24.060;2023-11-21T01:54:56;12.93;;;6.30;;
61756;SDS011;57225;61.460;24.060;2023-11-21T01:57:43;12.00;;;6.32;;
61756;SDS011;57225;61.460;24.060;2023-11-21T02:00:27;11.20;;;6.22;;
61756;SDS011;57225;61.460;24.060;2023-11-21T02:03:11;13.13;;;6.63;;
61756;SDS011;57225;61.460;24.060;2023-11-21T02:05:56;16.35;;;6.97;;
61756;SDS011;57225;61.460;24.060;2023-11-21T02:08:40;13.70;;;6.13;;
61756;SDS011;57225;61.460;24.060;2023-11-21T02:11:27;13.43;;;6.20;;
61756;SDS011;57225;61.460;24.060;2023-11-21T02:14:12;9.60;;;5.72;;
61756;SDS011;57225;61.460;24.060;2023-11-21T02:16:57;12.40;;;6.22;;
61756;SDS011;57225;61.460;24.060;2023-11-21T02:19:42;9.30;;;5.72;;
61756;SDS011;57225;61.460;24.060;2023-11-21T02:22:30;12.98;;;6.57;;
61756;SDS011;57225;61.460;24.060;2023-11-21T02:25:17;11.35;;;6.47;;
61756;SDS011;57225;61.460;24.060;2023-11-21T02:28:03;14.60;;;6.72;;
61756;SDS011;57225;61.460;24.060;2023-11-21T02:30:47;12.75;;;6.30;;
61756;SDS011;57225;61.460;24.060;2023-11-21T02:33:39;12.45;;;5.93;;
61756;SDS011;57225;61.460;24.060;2023-11-21T02:36:23;12.25;;;6.55;;
61756;SDS011;57225;61.460;24.060;2023-11-21T02:39:08;11.95;;;6.68;;
61756;SDS011;57225;61.460;24.060;2023-11-21T02:41:53;13.13;;;6.60;;
61756;SDS011;57225;61.460;24.060;2023-11-21T02:44:38;13.35;;;6.80;;
61756;SDS011;57225;61.460;24.060;2023-11-21T02:47:22;13.32;;;6.65;;
61756;SDS011;57225;61.460;24.060;2023-11-21T02:50:07;13.30;;;6.75;;
61756;SDS011;57225;61.460;24.060;2023-11-21T02:52:52;11.13;;;6.18;;
61756;SDS011;57225;61.460;24.060;2023-11-21T02:55:37;15.68;;;7.72;;
61756;SDS011;57225;61.460;24.060;2023-11-21T02:58:21;12.90;;;6.10;;
61756;SDS011;57225;61.460;24.060;2023-11-21T03:01:05;12.52;;;6.53;;
61756;SDS011;57225;61.460;24.060;2023-11-21T03:03:52;14.75;;;7.10;;
61756;SDS011;57225;61.460;24.060;2023-11-21T03:06:36;13.30;;;6.50;;
61756;SDS011;57225;61.460;24.060;2023-11-21T03:09:20;11.40;;;6.22;;
61756;SDS011;57225;61.460;24.060;2023-11-21T03:12:05;11.88;;;6.40;;
61756;SDS011;57225;61.460;24.060;2023-11-21T03:14:50;14.13;;;7.18;;
61756;SDS011;57225;61.460;24.060;2023-11-21T03:17:34;13.13;;;6.78;;
61756;SDS011;57225;61.460;24.060;2023-11-21T03:20:19;15.90;;;7.13;;
61756;SDS011;57225;61.460;24.060;2023-11-21T03:23:03;13.90;;;6.30;;
61756;SDS011;57225;61.460;24.060;2023-11-21T03:25:48;13.15;;;6.30;;
61756;SDS011;57225;61.460;24.060;2023-11-21T03:28:33;14.57;;;7.18;;
61756;SDS011;57225;61.460;24.060;2023-11-21T03:31:17;13.75;;;7.28;;
61756;SDS011;57225;61.460;24.060;2023-11-21T03:34:02;13.57;;;6.85;;
61756;SDS011;57225;61.460;24.060;2023-11-21T03:36:47;13.82;;;7.00;;
61756;SDS011;57225;61.460;24.060;2023-11-21T03:39:32;13.55;;;7.03;;
61756;SDS011;57225;61.460;24.060;2023-11-21T03:42:16;13.88;;;6.80;;
61756;SDS011;57225;61.460;24.060;2023-11-21T03:45:01;13.85;;;6.32;;
61756;SDS011;57225;61.460;24.060;2023-11-21T03:47:47;11.70;;;6.20;;
61756;SDS011;57225;61.460;24.060;2023-11-21T03:50:32;14.75;;;6.18;;
61756;SDS011;57225;61.460;24.060;2023-11-21T03:53:17;13.65;;;6.50;;
61756;SDS011;57225;61.460;24.060;2023-11-21T03:56:04;11.45;;;6.00;;
61756;SDS011;57225;61.460;24.060;2023-11-21T03:58:49;12.43;;;5.68;;
61756;SDS011;57225;61.460;24.060;2023-11-21T04:01:34;12.50;;;6.15;;
61756;SDS011;57225;61.460;24.060;2023-11-21T04:04:18;10.00;;;5.45;;
61756;SDS011;57225;61.460;24.060;2023-11-21T04:07:03;10.50;;;5.50;;
61756;SDS011;57225;61.460;24.060;2023-11-21T04:09:47;10.18;;;5.13;;
61756;SDS011;57225;61.460;24.060;2023-11-21T04:12:32;9.73;;;4.93;;
61756;SDS011;57225;61.460;24.060;2023-11-21T04:15:17;9.32;;;4.88;;
61756;SDS011;57225;61.460;24.060;2023-11-21T04:18:01;8.68;;;4.72;;
61756;SDS011;57225;61.460;24.060;2023-11-21T04:20:46;9.10;;;4.78;;
61756;SDS011;57225;61.460;24.060;2023-11-21T04:23:31;9.73;;;4.22;;
61756;SDS011;57225;61.460;24.060;2023-11-21T04:26:16;11.57;;;4.45;;
61756;SDS011;57225;61.460;24.060;2023-11-21T04:29:00;10.13;;;4.63;;
61756;SDS011;57225;61.460;24.060;2023-11-21T04:31:45;7.93;;;4.43;;
61756;SDS011;57225;61.460;24.060;2023-11-21T04:34:30;8.63;;;4.55;;
61756;SDS011;57225;61.460;24.060;2023-11-21T04:37:23;9.43;;;4.57;;
61756;SDS011;57225;61.460;24.060;2023-11-21T04:40:08;8.25;;;4.07;;
61756;SDS011;57225;61.460;24.060;2023-11-21T04:42:53;9.00;;;4.18;;
61756;SDS011;57225;61.460;24.060;2023-11-21T04:45:37;7.93;;;4.00;;
61756;SDS011;57225;61.460;24.060;2023-11-21T04:48:22;8.55;;;4.00;;
61756;SDS011;57225;61.460;24.060;2023-11-21T04:51:06;10.50;;;4.10;;
61756;SDS011;57225;61.460;24.060;2023-11-21T04:53:51;7.22;;;3.65;;
61756;SDS011;57225;61.460;24.060;2023-11-21T04:56:35;7.63;;;4.30;;
61756;SDS011;57225;61.460;24.060;2023-11-21T04:59:20;8.68;;;4.18;;
61756;SDS011;57225;61.460;24.060;2023-11-21T05:02:04;7.03;;;3.97;;
61756;SDS011;57225;61.460;24.060;2023-11-21T05:04:49;5.78;;;3.72;;
61756;SDS011;57225;61.460;24.060;2023-11-21T05:07:33;7.47;;;3.50;;
61756;SDS011;57225;61.460;24.060;2023-11-21T05:10:19;8.07;;;3.53;;
61756;SDS011;57225;61.460;24.060;2023-11-21T05:13:03;8.15;;;3.30;;
61756;SDS011;57225;61.460;24.060;2023-11-21T05:15:48;7.50;;;3.90;;
61756;SDS011;57225;61.460;24.060;2023-11-21T05:18:33;7.10;;;3.17;;
61756;SDS011;57225;61.460;24.060;2023-11-21T05:21:18;8.00;;;3.50;;
61756;SDS011;57225;61.460;24.060;2023-11-21T05:24:04;6.80;;;3.63;;
61756;SDS011;57225;61.460;24.060;2023-11-21T05:26:49;6.88;;;3.63;;
61756;SDS011;57225;61.460;24.060;2023-11-21T05:29:33;8.48;;;4.15;;
61756;SDS011;57225;61.460;24.060;2023-11-21T05:32:17;5.97;;;3.30;;
61756;SDS011;57225;61.460;24.060;2023-11-21T05:35:02;8.18;;;3.55;;
61756;SDS011;57225;61.460;24.060;2023-11-21T05:37:46;9.35;;;3.70;;
61756;SDS011;57225;61.460;24.060;2023-11-21T05:40:31;8.35;;;3.40;;
61756;SDS011;57225;61.460;24.060;2023-11-21T05:43:15;7.55;;;3.40;;
61756;SDS011;57225;61.460;24.060;2023-11-21T05:46:00;6.03;;;3.55;;
61756;SDS011;57225;61.460;24.060;2023-11-21T05:48:44;6.07;;;3.30;;
61756;SDS011;57225;61.460;24.060;2023-11-21T05:51:29;8.52;;;3.75;;
61756;SDS011;57225;61.460;24.060;2023-11-21T05:54:14;7.70;;;3.75;;
61756;SDS011;57225;61.460;24.060;2023-11-21T05:56:59;6.93;;;3.53;;
61756;SDS011;57225;61.460;24.060;2023-11-21T05:59:43;7.13;;;3.72;;
61756;SDS011;57225;61.460;24.060;2023-11-21T06:02:30;8.32;;;3.58;;
61756;SDS011;57225;61.460;24.060;2023-11-21T06:05:14;7.00;;;3.63;;
61756;SDS011;57225;61.460;24.060;2023-11-21T06:07:59;7.68;;;3.88;;
61756;SDS011;57225;61.460;24.060;2023-11-21T06:10:44;9.25;;;3.50;;
61756;SDS011;57225;61.460;24.060;2023-11-21T06:13:29;8.77;;;3.75;;
61756;SDS011;57225;61.460;24.060;2023-11-21T06:16:14;8.32;;;3.80;;
61756;SDS011;57225;61.460;24.060;2023-11-21T06:19:00;7.15;;;3.53;;
61756;SDS011;57225;61.460;24.060;2023-11-21T06:21:47;9.40;;;3.97;;
61756;SDS011;57225;61.460;24.060;2023-11-21T06:24:31;10.85;;;4.25;;
61756;SDS011;57225;61.460;24.060;2023-11-21T06:27:16;6.63;;;3.38;;
61756;SDS011;57225;61.460;24.060;2023-11-21T06:30:00;8.65;;;3.88;;
61756;SDS011;57225;61.460;24.060;2023-11-21T06:32:45;7.75;;;3.90;;
61756;SDS011;57225;61.460;24.060;2023-11-21T06:35:30;8.80;;;3.67;;
61756;SDS011;57225;61.460;24.060;2023-11-21T06:38:17;6.50;;;3.20;;
61756;SDS011;57225;61.460;24.060;2023-11-21T06:41:02;9.95;;;3.47;;
61756;SDS011;57225;61.460;24.060;2023-11-21T06:43:48;8.13;;;3.58;;
61756;SDS011;57225;61.460;24.060;2023-11-21T06:46:33;7.65;;;3.80;;
61756;SDS011;57225;61.460;24.060;2023-11-21T06:49:17;6.57;;;3.15;;
61756;SDS011;57225;61.460;24.060;2023-11-21T06:52:02;9.32;;;3.58;;
61756;SDS011;57225;61.460;24.060;2023-11-21T06:54:47;5.60;;;3.20;;
61756;SDS011;57225;61.460;24.060;2023-11-21T06:57:33;5.93;;;3.33;;
61756;SDS011;57225;61.460;24.060;2023-11-21T07:00:17;6.05;;;3.28;;
61756;SDS011;57225;61.460;24.060;2023-11-21T07:03:02;8.05;;;3.75;;
61756;SDS011;57225;61.460;24.060;2023-11-21T07:05:47;6.85;;;3.38;;
61756;SDS011;57225;61.460;24.060;2023-11-21T07:08:31;6.25;;;2.97;;
61756;SDS011;57225;61.460;24.060;2023-11-21T07:11:16;6.13;;;3.17;;
61756;SDS011;57225;61.460;24.060;2023-11-21T07:14:00;6.53;;;3.30;;
61756;SDS011;57225;61.460;24.060;2023-11-21T07:16:50;7.10;;;3.72;;
61756;SDS011;57225;61.460;24.060;2023-11-21T07:19:36;6.18;;;3.08;;
61756;SDS011;57225;61.460;24.060;2023-11-21T07:22:21;6.25;;;3.05;;
61756;SDS011;57225;61.460;24.060;2023-11-21T07:25:05;7.07;;;3.80;;
61756;SDS011;57225;61.460;24.060;2023-11-21T07:27:50;6.88;;;3.50;;
61756;SDS011;57225;61.460;24.060;2023-11-21T07:30:37;6.53;;;3.13;;
61756;SDS011;57225;61.460;24.060;2023-11-21T07:33:21;8.30;;;3.15;;
61756;SDS011;57225;61.460;24.060;2023-11-21T07:36:06;5.75;;;3.40;;
61756;SDS011;57225;61.460;24.060;2023-11-21T07:38:51;5.18;;;3.00;;
61756;SDS011;57225;61.460;24.060;2023-11-21T07:41:35;6.65;;;3.35;;
61756;SDS011;57225;61.460;24.060;2023-11-21T07:44:22;6.43;;;2.90;;
61756;SDS011;57225;61.460;24.060;2023-11-21T07:47:16;4.88;;;2.75;;
61756;SDS011;57225;61.460;24.060;2023-11-21T07:50:02;6.85;;;2.78;;
61756;SDS011;57225;61.460;24.060;2023-11-21T07:52:47;4.97;;;2.47;;
61756;SDS011;57225;61.460;24.060;2023-11-21T07:55:31;8.13;;;3.15;;
61756;SDS011;57225;61.460;24.060;2023-11-21T07:58:16;5.22;;;2.95;;
61756;SDS011;57225;61.460;24.060;2023-11-21T08:01:01;5.18;;;2.88;;
61756;SDS011;57225;61.460;24.060;2023-11-21T08:03:46;6.03;;;3.22;;
61756;SDS011;57225;61.460;24.060;2023-11-21T08:06:35;6.82;;;2.67;;
61756;SDS011;57225;61.460;24.060;2023-11-21T08:09:19;7.15;;;3.15;;
61756;SDS011;57225;61.460;24.060;2023-11-21T08:12:07;4.67;;;2.73;;
61756;SDS011;57225;61.460;24.060;2023-11-21T08:14:54;5.65;;;3.28;;
61756;SDS011;57225;61.460;24.060;2023-11-21T08:17:39;5.70;;;2.97;;
61756;SDS011;57225;61.460;24.060;2023-11-21T08:20:23;3.75;;;2.60;;
61756;SDS011;57225;61.460;24.060;2023-11-21T08:23:08;7.90;;;2.78;;
61756;SDS011;57225;61.460;24.060;2023-11-21T08:25:53;4.38;;;2.83;;
61756;SDS011;57225;61.460;24.060;2023-11-21T08:28:37;5.93;;;3.13;;
61756;SDS011;57225;61.460;24.060;2023-11-21T08:31:25;5.10;;;3.17;;
61756;SDS011;57225;61.460;24.060;2023-11-21T08:34:10;4.82;;;3.15;;
61756;SDS011;57225;61.460;24.060;2023-11-21T08:40:13;6.22;;;2.97;;
61756;SDS011;57225;61.460;24.060;2023-11-21T08:43:00;5.25;;;2.97;;
61756;SDS011;57225;61.460;24.060;2023-11-21T08:45:44;4.65;;;2.90;;
61756;SDS011;57225;61.460;24.060;2023-11-21T08:48:29;9.05;;;3.75;;
61756;SDS011;57225;61.460;24.060;2023-11-21T08:51:13;6.97;;;3.40;;
61756;SDS011;57225;61.460;24.060;2023-11-21T08:53:58;9.73;;;4.10;;
61756;SDS011;57225;61.460;24.060;2023-11-21T08:56:44;8.00;;;4.38;;
61756;SDS011;57225;61.460;24.060;2023-11-21T08:59:30;7.68;;;3.88;;
61756;SDS011;57225;61.460;24.060;2023-11-21T09:02:14;8.52;;;3.80;;
61756;SDS011;57225;61.460;24.060;2023-11-21T09:04:59;8.68;;;3.67;;
61756;SDS011;57225;61.460;24.060;2023-11-21T09:07:47;5.97;;;3.58;;
61756;SDS011;57225;61.460;24.060;2023-11-21T09:10:33;8.65;;;3.78;;
61756;SDS011;57225;61.460;24.060;2023-11-21T09:13:20;8.13;;;3.40;;
61756;SDS011;57225;61.460;24.060;2023-11-21T09:16:05;6.88;;;3.42;;
61756;SDS011;57225;61.460;24.060;2023-11-21T09:18:49;8.50;;;3.83;;
61756;SDS011;57225;61.460;24.060;2023-11-21T09:21:33;8.82;;;3.97;;
61756;SDS011;57225;61.460;24.060;2023-11-21T09:24:18;8.45;;;3.80;;
61756;SDS011;57225;61.460;24.060;2023-11-21T09:27:03;8.70;;;4.22;;
61756;SDS011;57225;61.460;24.060;2023-11-21T09:29:49;9.82;;;4.22;;
61756;SDS011;57225;61.460;24.060;2023-11-21T09:32:33;8.20;;;3.95;;
61756;SDS011;57225;61.460;24.060;2023-11-21T09:35:19;8.15;;;3.65;;
61756;SDS011;57225;61.460;24.060;2023-11-21T09:38:03;10.38;;;3.85;;
61756;SDS011;57225;61.460;24.060;2023-11-21T09:40:54;8.65;;;4.07;;
61756;SDS011;57225;61.460;24.060;2023-11-21T09:43:39;9.90;;;4.32;;
61756;SDS011;57225;61.460;24.060;2023-11-21T09:46:23;9.48;;;4.00;;
61756;SDS011;57225;61.460;24.060;2023-11-21T09:49:09;9.15;;;4.30;;
61756;SDS011;57225;61.460;24.060;2023-11-21T09:51:57;9.60;;;3.72;;
61756;SDS011;57225;61.460;24.060;2023-11-21T09:54:48;9.35;;;3.90;;
61756;SDS011;57225;61.460;24.060;2023-11-21T09:57:34;9.25;;;4.05;;
61756;SDS011;57225;61.460;24.060;2023-11-21T10:00:19;7.50;;;3.55;;
61756;SDS011;57225;61.460;24.060;2023-11-21T10:03:07;7.63;;;3.65;;
61756;SDS011;57225;61.460;24.060;2023-11-21T10:05:53;8.95;;;4.45;;
61756;SDS011;57225;61.460;24.060;2023-11-21T10:08:40;8.38;;;3.70;;
61756;SDS011;57225;61.460;24.060;2023-11-21T10:11:25;7.90;;;4.03;;
61756;SDS011;57225;61.460;24.060;2023-11-21T10:14:11;8.43;;;4.15;;
61756;SDS011;57225;61.460;24.060;2023-11-21T10:17:00;11.80;;;4.63;;
61756;SDS011;57225;61.460;24.060;2023-11-21T10:19:48;9.35;;;4.00;;
61756;SDS011;57225;61.460;24.060;2023-11-21T10:22:32;9.35;;;3.80;;
61756;SDS011;57225;61.460;24.060;2023-11-21T10:25:17;10.18;;;4.40;;
61756;SDS011;57225;61.460;24.060;2023-11-21T10:28:04;8.52;;;4.20;;
61756;SDS011;57225;61.460;24.060;2023-11-21T10:30:51;7.85;;;3.72;;
61756;SDS011;57225;61.460;24.060;2023-11-21T10:33:36;11.30;;;3.97;;
61756;SDS011;57225;61.460;24.060;2023-11-21T10:36:27;10.55;;;4.32;;
61756;SDS011;57225;61.460;24.060;2023-11-21T10:39:21;7.85;;;4.00;;
61756;SDS011;57225;61.460;24.060;2023-11-21T10:42:10;10.10;;;3.85;;
61756;SDS011;57225;61.460;24.060;2023-11-21T10:44:54;8.93;;;3.85;;
61756;SDS011;57225;61.460;24.060;2023-11-21T10:47:39;9.05;;;3.70;;
61756;SDS011;57225;61.460;24.060;2023-11-21T10:50:25;8.43;;;3.70;;
61756;SDS011;57225;61.460;24.060;2023-11-21T10:53:10;11.65;;;4.70;;
61756;SDS011;57225;61.460;24.060;2023-11-21T10:56:05;6.78;;;3.53;;
61756;SDS011;57225;61.460;24.060;2023-11-21T10:58:52;10.93;;;4.45;;
61756;SDS011;57225;61.460;24.060;2023-11-21T11:01:36;7.50;;;3.90;;
61756;SDS011;57225;61.460;24.060;2023-11-21T11:04:21;10.60;;;3.80;;
61756;SDS011;57225;61.460;24.060;2023-11-21T11:07:07;7.93;;;3.75;;
61756;SDS011;57225;61.460;24.060;2023-11-21T11:09:56;8.98;;;4.03;;
61756;SDS011;57225;61.460;24.060;2023-11-21T11:12:43;10.98;;;4.28;;
61756;SDS011;57225;61.460;24.060;2023-11-21T11:15:31;10.18;;;4.00;;
61756;SDS011;57225;61.460;24.060;2023-11-21T11:18:15;13.35;;;4.32;;
61756;SDS011;57225;61.460;24.060;2023-11-21T11:21:03;9.48;;;4.22;;
61756;SDS011;57225;61.460;24.060;2023-11-21T11:27:16;9.93;;;3.50;;
61756;SDS011;57225;61.460;24.060;2023-11-21T11:30:11;8.60;;;3.80;;
61756;SDS011;57225;61.460;24.060;2023-11-21T11:36:44;11.65;;;3.70;;
61756;SDS011;57225;61.460;24.060;2023-11-21T11:39:49;11.77;;;3.60;;
61756;SDS011;57225;61.460;24.060;2023-11-21T11:42:33;8.23;;;3.42;;
61756;SDS011;57225;61.460;24.060;2023-11-21T11:45:18;9.23;;;3.90;;
61756;SDS011;57225;61.460;24.060;2023-11-21T11:48:05;8.30;;;3.28;;
61756;SDS011;57225;61.460;24.060;2023-11-21T11:54:06;6.43;;;3.25;;
61756;SDS011;57225;61.460;24.060;2023-11-21T11:56:51;7.13;;;3.40;;
61756;SDS011;57225;61.460;24.060;2023-11-21T12:00:06;8.25;;;2.80;;
61756;SDS011;57225;61.460;24.060;2023-11-21T12:03:02;8.93;;;3.60;;
61756;SDS011;57225;61.460;24.060;2023-11-21T12:05:47;6.55;;;3.53;;
61756;SDS011;57225;61.460;24.060;2023-11-21T12:08:36;7.07;;;3.28;;
61756;SDS011;57225;61.460;24.060;2023-11-21T12:11:21;6.47;;;3.00;;
61756;SDS011;57225;61.460;24.060;2023-11-21T12:14:13;5.88;;;3.17;;
61756;SDS011;57225;61.460;24.060;2023-11-21T12:16:59;6.60;;;3.05;;
61756;SDS011;57225;61.460;24.060;2023-11-21T12:19:44;7.82;;;3.30;;
61756;SDS011;57225;61.460;24.060;2023-11-21T12:22:28;5.25;;;2.83;;
61756;SDS011;57225;61.460;24.060;2023-11-21T12:25:23;9.48;;;3.75;;
61756;SDS011;57225;61.460;24.060;2023-11-21T12:28:11;9.43;;;3.15;;
61756;SDS011;57225;61.460;24.060;2023-11-21T12:30:56;7.45;;;3.58;;
61756;SDS011;57225;61.460;24.060;2023-11-21T12:33:41;7.18;;;3.38;;
61756;SDS011;57225;61.460;24.060;2023-11-21T12:36:25;7.63;;;3.08;;
61756;SDS011;57225;61.460;24.060;2023-11-21T12:39:12;7.68;;;3.17;;
61756;SDS011;57225;61.460;24.060;2023-11-21T12:41:58;6.00;;;3.13;;
61756;SDS011;57225;61.460;24.060;2023-11-21T12:44:42;6.50;;;3.40;;
61756;SDS011;57225;61.460;24.060;2023-11-21T12:47:33;6.07;;;2.80;;
61756;SDS011;57225;61.460;24.060;2023-11-21T12:50:19;11.13;;;2.95;;
61756;SDS011;57225;61.460;24.060;2023-11-21T12:53:08;5.60;;;3.00;;
61756;SDS011;57225;61.460;24.060;2023-11-21T12:55:56;7.28;;;3.47;;
61756;SDS011;57225;61.460;24.060;2023-11-21T12:58:45;6.43;;;2.85;;
61756;SDS011;57225;61.460;24.060;2023-11-21T13:01:34;7.00;;;3.40;;
61756;SDS011;57225;61.460;24.060;2023-11-21T13:04:20;8.25;;;3.30;;
61756;SDS011;57225;61.460;24.060;2023-11-21T13:07:13;4.97;;;2.85;;
61756;SDS011;57225;61.460;24.060;2023-11-21T13:09:58;6.20;;;3.13;;
61756;SDS011;57225;61.460;24.060;2023-11-21T13:12:46;5.88;;;2.95;;
61756;SDS011;57225;61.460;24.060;2023-11-21T13:15:31;9.70;;;2.90;;
61756;SDS011;57225;61.460;24.060;2023-11-21T13:18:16;7.07;;;3.03;;
61756;SDS011;57225;61.460;24.060;2023-11-21T13:21:02;5.65;;;2.97;;
61756;SDS011;57225;61.460;24.060;2023-11-21T13:23:53;7.20;;;3.22;;
61756;SDS011;57225;61.460;24.060;2023-11-21T13:26:38;5.80;;;3.03;;
61756;SDS011;57225;61.460;24.060;2023-11-21T13:29:23;8.80;;;3.42;;
61756;SDS011;57225;61.460;24.060;2023-11-21T13:32:09;5.55;;;3.08;;
61756;SDS011;57225;61.460;24.060;2023-11-21T13:34:55;8.38;;;2.95;;
61756;SDS011;57225;61.460;24.060;2023-11-21T13:37:40;5.68;;;3.05;;
61756;SDS011;57225;61.460;24.060;2023-11-21T13:40:24;9.65;;;3.17;;
61756;SDS011;57225;61.460;24.060;2023-11-21T13:43:13;6.03;;;3.75;;
61756;SDS011;57225;61.460;24.060;2023-11-21T13:46:00;4.38;;;2.92;;
61756;SDS011;57225;61.460;24.060;2023-11-21T13:48:56;7.28;;;3.47;;
61756;SDS011;57225;61.460;24.060;2023-11-21T13:51:41;6.93;;;3.08;;
61756;SDS011;57225;61.460;24.060;2023-11-21T13:54:28;4.35;;;2.75;;
61756;SDS011;57225;61.460;24.060;2023-11-21T13:57:13;6.53;;;2.75;;
61756;SDS011;57225;61.460;24.060;2023-11-21T13:59:57;6.03;;;2.90;;
61756;SDS011;57225;61.460;24.060;2023-11-21T14:02:43;6.18;;;2.95;;
61756;SDS011;57225;61.460;24.060;2023-11-21T14:05:28;5.07;;;2.95;;
61756;SDS011;57225;61.460;24.060;2023-11-21T14:08:13;4.72;;;2.88;;
61756;SDS011;57225;61.460;24.060;2023-11-21T14:11:03;11.63;;;3.17;;
61756;SDS011;57225;61.460;24.060;2023-11-21T14:13:50;5.70;;;2.88;;
61756;SDS011;57225;61.460;24.060;2023-11-21T14:16:35;7.80;;;3.10;;
61756;SDS011;57225;61.460;24.060;2023-11-21T14:19:20;6.32;;;3.30;;
61756;SDS011;57225;61.460;24.060;2023-11-21T14:22:11;5.65;;;3.05;;
61756;SDS011;57225;61.460;24.060;2023-11-21T14:24:56;6.53;;;3.17;;
61756;SDS011;57225;61.460;24.060;2023-11-21T14:27:43;6.78;;;2.65;;
61756;SDS011;57225;61.460;24.060;2023-11-21T14:30:27;6.65;;;3.17;;
61756;SDS011;57225;61.460;24.060;2023-11-21T14:33:14;5.70;;;3.40;;
61756;SDS011;57225;61.460;24.060;2023-11-21T14:36:00;8.05;;;3.20;;
61756;SDS011;57225;61.460;24.060;2023-11-21T14:38:44;5.28;;;3.13;;
61756;SDS011;57225;61.460;24.060;2023-11-21T14:41:29;5.10;;;2.67;;
61756;SDS011;57225;61.460;24.060;2023-11-21T14:44:19;4.43;;;2.65;;
61756;SDS011;57225;61.460;24.060;2023-11-21T14:47:08;5.72;;;2.90;;
61756;SDS011;57225;61.460;24.060;2023-11-21T14:50:09;4.78;;;3.00;;
61756;SDS011;57225;61.460;24.060;2023-11-21T14:53:19;7.07;;;3.20;;
61756;SDS011;57225;61.460;24.060;2023-11-21T14:56:24;6.38;;;3.25;;
61756;SDS011;57225;61.460;24.060;2023-11-21T14:59:14;9.60;;;3.95;;
61756;SDS011;57225;61.460;24.060;2023-11-21T15:01:59;7.47;;;3.17;;
61756;SDS011;57225;61.460;24.060;2023-11-21T15:04:58;11.85;;;3.30;;
61756;SDS011;57225;61.460;24.060;2023-11-21T15:07:45;6.55;;;3.50;;
61756;SDS011;57225;61.460;24.060;2023-11-21T15:10:32;6.60;;;2.85;;
61756;SDS011;57225;61.460;24.060;2023-11-21T15:13:29;5.50;;;3.15;;
61756;SDS011;57225;61.460;24.060;2023-11-21T15:16:15;6.35;;;3.97;;
61756;SDS011;57225;61.460;24.060;2023-11-21T15:18:59;8.10;;;3.47;;
61756;SDS011;57225;61.460;24.060;2023-11-21T15:21:44;7.13;;;3.30;;
61756;SDS011;57225;61.460;24.060;2023-11-21T15:24:29;7.22;;;3.20;;
61756;SDS011;57225;61.460;24.060;2023-11-21T15:27:14;6.63;;;3.20;;
61756;SDS011;57225;61.460;24.060;2023-11-21T15:30:00;7.32;;;3.00;;
61756;SDS011;57225;61.460;24.060;2023-11-21T15:32:44;6.82;;;3.35;;
61756;SDS011;57225;61.460;24.060;2023-11-21T15:35:29;7.22;;;3.30;;
61756;SDS011;57225;61.460;24.060;2023-11-21T15:38:14;9.70;;;3.35;;
61756;SDS011;57225;61.460;24.060;2023-11-21T15:40:58;8.05;;;4.25;;
61756;SDS011;57225;61.460;24.060;2023-11-21T15:43:43;8.50;;;3.78;;
61756;SDS011;57225;61.460;24.060;2023-11-21T15:46:28;6.53;;;3.47;;
61756;SDS011;57225;61.460;24.060;2023-11-21T15:49:13;9.18;;;3.55;;
61756;SDS011;57225;61.460;24.060;2023-11-21T15:51:57;5.85;;;3.35;;
61756;SDS011;57225;61.460;24.060;2023-11-21T15:54:43;5.68;;;3.53;;
61756;SDS011;57225;61.460;24.060;2023-11-21T15:57:29;6.82;;;3.83;;
61756;SDS011;57225;61.460;24.060;2023-11-21T16:00:15;5.65;;;3.25;;
61756;SDS011;57225;61.460;24.060;2023-11-21T16:03:05;6.00;;;2.95;;
61756;SDS011;57225;61.460;24.060;2023-11-21T16:05:50;3.70;;;2.35;;
61756;SDS011;57225;61.460;24.060;2023-11-21T16:08:35;6.78;;;2.75;;
61756;SDS011;57225;61.460;24.060;2023-11-21T16:11:20;5.00;;;2.60;;
61756;SDS011;57225;61.460;24.060;2023-11-21T16:14:04;4.95;;;2.60;;
61756;SDS011;57225;61.460;24.060;2023-11-21T16:16:49;4.72;;;2.55;;
61756;SDS011;57225;61.460;24.060;2023-11-21T16:19:34;12.50;;;4.72;;
61756;SDS011;57225;61.460;24.060;2023-11-21T16:22:19;13.32;;;4.65;;
61756;SDS011;57225;61.460;24.060;2023-11-21T16:25:03;11.48;;;5.30;;
61756;SDS011;57225;61.460;24.060;2023-11-21T16:27:50;7.75;;;3.83;;
61756;SDS011;57225;61.460;24.060;2023-11-21T16:30:35;7.55;;;3.85;;
61756;SDS011;57225;61.460;24.060;2023-11-21T16:33:19;9.50;;;3.70;;
61756;SDS011;57225;61.460;24.060;2023-11-21T16:36:04;7.63;;;3.58;;